sensor_id;sensor_type;location;lat;lon;timestamp;temperature;humidity
75517;DHT22;64097;52.548;13.406;2023-04-24T06:02:24;18.40;58.20
75517;DHT22;64097;52.548;13.406;2023-04-24T06:04:51;18.40;58.10
75517;DHT22;64097;52.548;13.406;2023-04-24T06:07:17;18.50;58.10
75517;DHT22;64097;52.548;13.406;2023-04-24T06:09:42;18.40;58.00
75517;DHT22;64097;52.548;13.406;2023-04-24T06:12:08;18.50;58.00
75517;DHT22;64097;52.548;13.406;2023-04-24T06:14:34;18.50;58.00
75517;DHT22;64097;52.548;13.406;2023-04-24T06:17:00;18.50;57.90
75517;DHT22;64097;52.548;13.406;2023-04-24T06:19:25;18.50;57.80
75517;DHT22;64097;52.548;13.406;2023-04-24T06:21:51;18.50;57.70
75517;DHT22;64097;52.548;13.406;2023-04-24T06:24:17;18.50;57.70
75517;DHT22;64097;52.548;13.406;2023-04-24T06:26:42;18.60;57.70
75517;DHT22;64097;52.548;13.406;2023-04-24T06:29:08;18.60;57.60
75517;DHT22;64097;52.548;13.406;2023-04-24T06:31:34;18.60;58.30
75517;DHT22;64097;52.548;13.406;2023-04-24T06:34:03;18.60;57.50
75517;DHT22;64097;52.548;13.406;2023-04-24T06:36:29;18.70;57.50
75517;DHT22;64097;52.548;13.406;2023-04-24T06:38:56;18.70;57.30
75517;DHT22;64097;52.548;13.406;2023-04-24T06:41:24;18.70;57.20
75517;DHT22;64097;52.548;13.406;2023-04-24T06:43:50;18.80;57.20
75517;DHT22;64097;52.548;13.406;2023-04-24T06:46:16;18.80;57.20
75517;DHT22;64097;52.548;13.406;2023-04-24T06:48:41;18.90;57.10
75517;DHT22;64097;52.548;13.406;2023-04-24T06:51:07;19.00;57.00
75517;DHT22;64097;52.548;13.406;2023-04-24T06:53:33;19.00;56.60
75517;DHT22;64097;52.548;13.406;2023-04-24T06:55:58;19.10;56.60
75517;DHT22;64097;52.548;13.406;2023-04-24T06:58:25;19.20;56.60
75517;DHT22;64097;52.548;13.406;2023-04-24T07:00:50;19.20;56.50
75517;DHT22;64097;52.548;13.406;2023-04-24T07:03:16;19.30;56.20
75517;DHT22;64097;52.548;13.406;2023-04-24T07:05:42;19.40;56.00
75517;DHT22;64097;52.548;13.406;2023-04-24T07:08:08;19.50;55.70
75517;DHT22;64097;52.548;13.406;2023-04-24T07:10:34;19.60;55.40
75517;DHT22;64097;52.548;13.406;2023-04-24T07:13:00;19.60;55.20
75517;DHT22;64097;52.548;13.406;2023-04-24T07:15:26;19.70;54.80
75517;DHT22;64097;52.548;13.406;2023-04-24T07:17:52;19.70;54.60
75517;DHT22;64097;52.548;13.406;2023-04-24T07:20:18;19.70;54.40
75517;DHT22;64097;52.548;13.406;2023-04-24T07:22:44;19.80;54.10
75517;DHT22;64097;52.548;13.406;2023-04-24T07:25:09;19.80;53.70
75517;DHT22;64097;52.548;13.406;2023-04-24T07:27:35;19.80;53.70
75517;DHT22;64097;52.548;13.406;2023-04-24T07:30:05;19.80;53.70
75517;DHT22;64097;52.548;13.406;2023-04-24T07:32:31;19.80;53.40
75517;DHT22;64097;52.548;13.406;2023-04-24T07:34:57;19.90;53.00
75517;DHT22;64097;52.548;13.406;2023-04-24T07:37:23;19.90;52.70
75517;DHT22;64097;52.548;13.406;2023-04-24T07:39:49;19.90;52.60
75517;DHT22;64097;52.548;13.406;2023-04-24T07:42:15;20.00;52.20
75517;DHT22;64097;52.548;13.406;2023-04-24T07:44:40;20.00;51.80
75517;DHT22;64097;52.548;13.406;2023-04-24T07:47:06;20.00;51.70
75517;DHT22;64097;52.548;13.406;2023-04-24T07:49:32;20.10;51.00
75517;DHT22;64097;52.548;13.406;2023-04-24T07:52:00;20.10;50.80
75517;DHT22;64097;52.548;13.406;2023-04-24T07:54:28;20.10;50.40
75517;DHT22;64097;52.548;13.406;2023-04-24T07:56:54;20.10;50.20
75517;DHT22;64097;52.548;13.406;2023-04-24T07:59:19;20.10;50.30
75517;DHT22;64097;52.548;13.406;2023-04-24T08:01:45;20.10;49.90
75517;DHT22;64097;52.548;13.406;2023-04-24T08:04:11;20.10;49.90
75517;DHT22;64097;52.548;13.406;2023-04-24T08:06:36;20.20;49.80
75517;DHT22;64097;52.548;13.406;2023-04-24T08:09:03;20.20;50.10
75517;DHT22;64097;52.548;13.406;2023-04-24T08:11:28;20.30;50.30
75517;DHT22;64097;52.548;13.406;2023-04-24T08:13:54;20.30;50.00
75517;DHT22;64097;52.548;13.406;2023-04-24T08:16:20;20.40;50.10
75517;DHT22;64097;52.548;13.406;2023-04-24T08:18:45;20.40;50.10
75517;DHT22;64097;52.548;13.406;2023-04-24T08:21:11;20.50;50.10
75517;DHT22;64097;52.548;13.406;2023-04-24T08:23:42;20.60;49.80
75517;DHT22;64097;52.548;13.406;2023-04-24T08:26:08;20.60;49.80
75517;DHT22;64097;52.548;13.406;2023-04-24T08:28:34;20.70;49.30
75517;DHT22;64097;52.548;13.406;2023-04-24T08:31:00;20.80;49.10
75517;DHT22;64097;52.548;13.406;2023-04-24T08:33:25;20.80;48.50
75517;DHT22;64097;52.548;13.406;2023-04-24T08:35:52;20.90;48.50
75517;DHT22;64097;52.548;13.406;2023-04-24T08:38:17;20.90;48.10
75517;DHT22;64097;52.548;13.406;2023-04-24T08:40:43;20.90;48.20
75517;DHT22;64097;52.548;13.406;2023-04-24T08:43:12;21.00;48.30
75517;DHT22;64097;52.548;13.406;2023-04-24T08:45:38;21.00;48.00
75517;DHT22;64097;52.548;13.406;2023-04-24T08:48:04;21.10;47.90
75517;DHT22;64097;52.548;13.406;2023-04-24T08:50:32;21.20;47.60
75517;DHT22;64097;52.548;13.406;2023-04-24T08:52:58;21.30;47.20
75517;DHT22;64097;52.548;13.406;2023-04-24T08:55:24;21.30;46.70
75517;DHT22;64097;52.548;13.406;2023-04-24T08:57:52;21.40;46.50
75517;DHT22;64097;52.548;13.406;2023-04-24T09:00:21;21.50;46.30
75517;DHT22;64097;52.548;13.406;2023-04-24T09:02:49;21.50;46.50
75517;DHT22;64097;52.548;13.406;2023-04-24T09:05:17;21.60;46.50
75517;DHT22;64097;52.548;13.406;2023-04-24T09:07:45;21.70;46.10
75517;DHT22;64097;52.548;13.406;2023-04-24T09:10:15;21.70;45.10
75517;DHT22;64097;52.548;13.406;2023-04-24T09:12:41;21.70;45.50
75517;DHT22;64097;52.548;13.406;2023-04-24T09:15:08;21.80;45.10
75517;DHT22;64097;52.548;13.406;2023-04-24T09:17:34;21.80;45.10
75517;DHT22;64097;52.548;13.406;2023-04-24T09:20:00;21.90;44.80
75517;DHT22;64097;52.548;13.406;2023-04-24T09:22:32;21.90;44.20
75517;DHT22;64097;52.548;13.406;2023-04-24T09:25:08;21.90;44.10
75517;DHT22;64097;52.548;13.406;2023-04-24T09:27:35;22.00;43.60
75517;DHT22;64097;52.548;13.406;2023-04-24T09:30:01;22.00;43.60
75517;DHT22;64097;52.548;13.406;2023-04-24T09:32:28;22.00;43.70
75517;DHT22;64097;52.548;13.406;2023-04-24T09:35:13;22.00;44.20
75517;DHT22;64097;52.548;13.406;2023-04-24T09:37:41;22.00;44.40
75517;DHT22;64097;52.548;13.406;2023-04-24T09:40:18;22.10;44.50
75517;DHT22;64097;52.548;13.406;2023-04-24T09:42:46;22.10;44.80
75517;DHT22;64097;52.548;13.406;2023-04-24T09:45:12;22.10;44.90
75517;DHT22;64097;52.548;13.406;2023-04-24T09:47:39;22.10;45.10
75517;DHT22;64097;52.548;13.406;2023-04-24T09:50:16;22.10;45.10
75517;DHT22;64097;52.548;13.406;2023-04-24T09:52:47;22.10;45.30
75517;DHT22;64097;52.548;13.406;2023-04-24T09:55:21;22.10;45.30
75517;DHT22;64097;52.548;13.406;2023-04-24T09:57:56;22.10;45.50
75517;DHT22;64097;52.548;13.406;2023-04-24T10:00:31;22.20;45.90
75517;DHT22;64097;52.548;13.406;2023-04-24T10:03:04;22.20;46.10
75517;DHT22;64097;52.548;13.406;2023-04-24T10:05:33;22.30;46.20
75517;DHT22;64097;52.548;13.406;2023-04-24T10:08:03;22.30;45.90
75517;DHT22;64097;52.548;13.406;2023-04-24T10:10:30;22.40;45.90
75517;DHT22;64097;52.548;13.406;2023-04-24T10:12:56;22.50;45.80
75517;DHT22;64097;52.548;13.406;2023-04-24T10:15:22;22.50;45.80
75517;DHT22;64097;52.548;13.406;2023-04-24T10:17:49;22.60;45.50
75517;DHT22;64097;52.548;13.406;2023-04-24T10:20:23;22.60;45.50
75517;DHT22;64097;52.548;13.406;2023-04-24T10:22:50;22.70;45.20
75517;DHT22;64097;52.548;13.406;2023-04-24T10:25:22;22.80;45.10
75517;DHT22;64097;52.548;13.406;2023-04-24T10:27:49;22.90;45.00
75517;DHT22;64097;52.548;13.406;2023-04-24T10:30:16;22.90;44.60
75517;DHT22;64097;52.548;13.406;2023-04-24T10:32:43;23.00;44.70
75517;DHT22;64097;52.548;13.406;2023-04-24T10:35:13;23.00;44.50
75517;DHT22;64097;52.548;13.406;2023-04-24T10:37:50;23.10;44.60
75517;DHT22;64097;52.548;13.406;2023-04-24T10:40:24;23.10;44.60
75517;DHT22;64097;52.548;13.406;2023-04-24T10:42:52;23.10;44.00
75517;DHT22;64097;52.548;13.406;2023-04-24T10:45:23;23.10;43.80
75517;DHT22;64097;52.548;13.406;2023-04-24T10:48:03;23.10;43.70
75517;DHT22;64097;52.548;13.406;2023-04-24T10:50:41;23.10;43.70
75517;DHT22;64097;52.548;13.406;2023-04-24T10:53:11;23.00;43.30
75517;DHT22;64097;52.548;13.406;2023-04-24T10:55:51;23.00;43.50
75517;DHT22;64097;52.548;13.406;2023-04-24T10:58:36;22.90;43.30
75517;DHT22;64097;52.548;13.406;2023-04-24T11:01:03;22.90;43.60
75517;DHT22;64097;52.548;13.406;2023-04-24T11:03:31;22.90;43.70
75517;DHT22;64097;52.548;13.406;2023-04-24T11:06:08;22.90;43.80
75517;DHT22;64097;52.548;13.406;2023-04-24T11:08:48;22.90;43.80
75517;DHT22;64097;52.548;13.406;2023-04-24T11:11:17;22.90;43.80
75517;DHT22;64097;52.548;13.406;2023-04-24T11:22:01;23.10;43.40
75517;DHT22;64097;52.548;13.406;2023-04-24T11:24:48;23.10;43.20
75517;DHT22;64097;52.548;13.406;2023-04-24T11:27:21;23.20;43.10
75517;DHT22;64097;52.548;13.406;2023-04-24T11:32:34;23.40;43.10
75517;DHT22;64097;52.548;13.406;2023-04-24T11:35:18;23.40;42.60
75517;DHT22;64097;52.548;13.406;2023-04-24T11:37:46;23.40;42.40
75517;DHT22;64097;52.548;13.406;2023-04-24T11:40:14;23.40;42.20
75517;DHT22;64097;52.548;13.406;2023-04-24T11:42:45;23.30;42.30
75517;DHT22;64097;52.548;13.406;2023-04-24T11:45:21;23.30;42.20
75517;DHT22;64097;52.548;13.406;2023-04-24T11:47:47;23.20;42.10
75517;DHT22;64097;52.548;13.406;2023-04-24T11:50:14;23.10;42.30
75517;DHT22;64097;52.548;13.406;2023-04-24T11:52:48;23.00;42.70
75517;DHT22;64097;52.548;13.406;2023-04-24T11:57:46;22.90;43.20
75517;DHT22;64097;52.548;13.406;2023-04-24T12:00:23;22.80;42.90
75517;DHT22;64097;52.548;13.406;2023-04-24T12:02:49;22.70;42.90
75517;DHT22;64097;52.548;13.406;2023-04-24T12:05:24;22.70;43.20
75517;DHT22;64097;52.548;13.406;2023-04-24T12:07:49;22.70;43.60
75517;DHT22;64097;52.548;13.406;2023-04-24T12:10:24;22.70;44.10
75517;DHT22;64097;52.548;13.406;2023-04-24T12:12:51;22.70;44.50
75517;DHT22;64097;52.548;13.406;2023-04-24T12:15:19;22.80;44.70
75517;DHT22;64097;52.548;13.406;2023-04-24T12:17:45;22.70;44.70
75517;DHT22;64097;52.548;13.406;2023-04-24T12:20:12;22.70;44.80
75517;DHT22;64097;52.548;13.406;2023-04-24T12:22:50;22.70;44.90
75517;DHT22;64097;52.548;13.406;2023-04-24T12:25:18;22.70;45.00
75517;DHT22;64097;52.548;13.406;2023-04-24T12:27:55;22.70;45.00
75517;DHT22;64097;52.548;13.406;2023-04-24T12:30:25;22.70;44.90
75517;DHT22;64097;52.548;13.406;2023-04-24T12:32:51;22.70;45.00
75517;DHT22;64097;52.548;13.406;2023-04-24T12:35:22;22.60;45.00
75517;DHT22;64097;52.548;13.406;2023-04-24T12:37:48;22.60;45.10
75517;DHT22;64097;52.548;13.406;2023-04-24T12:40:16;22.60;45.10
75517;DHT22;64097;52.548;13.406;2023-04-24T12:42:47;22.60;45.20
75517;DHT22;64097;52.548;13.406;2023-04-24T12:45:14;22.60;45.40
75517;DHT22;64097;52.548;13.406;2023-04-24T12:47:41;22.60;45.30
75517;DHT22;64097;52.548;13.406;2023-04-24T12:50:08;22.70;44.80
75517;DHT22;64097;52.548;13.406;2023-04-24T12:52:35;22.70;43.50
75517;DHT22;64097;52.548;13.406;2023-04-24T12:55:01;22.70;41.80
75517;DHT22;64097;52.548;13.406;2023-04-24T12:57:29;22.80;41.10
75517;DHT22;64097;52.548;13.406;2023-04-24T12:59:57;22.80;40.60
75517;DHT22;64097;52.548;13.406;2023-04-24T13:02:27;22.90;39.70
75517;DHT22;64097;52.548;13.406;2023-04-24T13:04:53;22.90;39.20
75517;DHT22;64097;52.548;13.406;2023-04-24T13:07:19;22.90;39.30
75517;DHT22;64097;52.548;13.406;2023-04-24T13:09:47;23.00;39.20
75517;DHT22;64097;52.548;13.406;2023-04-24T13:12:13;23.00;39.70
75517;DHT22;64097;52.548;13.406;2023-04-24T13:14:39;23.10;39.80
75517;DHT22;64097;52.548;13.406;2023-04-24T13:17:05;23.10;40.20
75517;DHT22;64097;52.548;13.406;2023-04-24T13:19:36;23.20;40.40
75517;DHT22;64097;52.548;13.406;2023-04-24T13:22:03;23.30;40.40
75517;DHT22;64097;52.548;13.406;2023-04-24T13:24:29;23.30;40.30
75517;DHT22;64097;52.548;13.406;2023-04-24T13:26:56;23.30;40.30
75517;DHT22;64097;52.548;13.406;2023-04-24T13:29:22;23.40;40.10
75517;DHT22;64097;52.548;13.406;2023-04-24T13:31:50;23.40;39.80
75517;DHT22;64097;52.548;13.406;2023-04-24T13:34:19;23.40;38.50
75517;DHT22;64097;52.548;13.406;2023-04-24T13:36:45;23.40;37.80
75517;DHT22;64097;52.548;13.406;2023-04-24T13:39:11;23.40;37.50
75517;DHT22;64097;52.548;13.406;2023-04-24T13:41:37;23.40;36.80
75517;DHT22;64097;52.548;13.406;2023-04-24T13:44:04;23.40;37.10
75517;DHT22;64097;52.548;13.406;2023-04-24T13:46:30;23.40;37.50
75517;DHT22;64097;52.548;13.406;2023-04-24T13:48:56;23.40;38.10
75517;DHT22;64097;52.548;13.406;2023-04-24T13:51:25;23.40;38.50
75517;DHT22;64097;52.548;13.406;2023-04-24T13:53:53;23.40;38.60
75517;DHT22;64097;52.548;13.406;2023-04-24T13:56:20;23.40;38.30
75517;DHT22;64097;52.548;13.406;2023-04-24T13:58:46;23.40;38.10
